Waterloo, Wisconsin
Current Conditions -  °F | °C
As of 1:35 PM on Thursday 27 Nov 2014 (Local Time) from KRYV Reporting Station
Light Snow Light Snow  
Wind Chill: -14°   Ceiling: 1900
Heat Index: -8°   Visibility: 10mi
Dew Point: -11°   Wind: 10mph
Humidity: 77%   Direction: 340°NNW
Pressure: 30.35"   Gusts: NA
Location:  43.18°N, 88.99°W
Report Text: KRYV 271935Z AUTO 34009KT 10SM -SN OVC019 M08/M11 A3035 RMK AO2 T10771111
Loading
Personal Weather Stations






























Interactive Weather Map New forecast layout! Learn more

10-Day Weather Forecast

Advertisements
Track Severe Weather on mobile